Time;durP1;ratioP1;P1;durP2;ratioP2;P2;SDS_P1;SDS_P2;PMS_P1;PMS_P2;Temp;Humidity;BMP_temperature;BMP_pressure;BME280_temperature;BME280_humidity;BME280_pressure;Samples;Min_cycle;Max_cycle;Signal;HPM_P1;HPM_P2
2023/12/31 00:02:17;;;;;;;2.73;1.77;;;9.70;99.90;;;;;;7393918;19;20150;-73
2023/12/31 00:04:43;;;;;;;1.20;1.10;;;9.80;99.90;;;;;;7390254;19;20178;-73
2023/12/31 00:07:09;;;;;;;1.60;1.50;;;9.80;99.90;;;;;;7394817;19;20167;-73
2023/12/31 00:09:35;;;;;;;1.73;1.33;;;9.70;99.90;;;;;;7395957;19;20131;-73
2023/12/31 00:12:01;;;;;;;2.23;1.83;;;9.70;99.90;;;;;;7395525;19;20119;-74
2023/12/31 00:14:27;;;;;;;3.70;2.80;;;9.60;99.90;;;;;;7395899;19;20139;-73
2023/12/31 00:16:52;;;;;;;3.20;1.90;;;9.60;99.90;;;;;;7393205;19;20134;-73
2023/12/31 00:19:18;;;;;;;3.93;1.60;;;9.60;99.90;;;;;;7392742;19;20630;-73
2023/12/31 00:21:44;;;;;;;1.50;1.20;;;9.60;99.90;;;;;;7392800;19;20163;-74
2023/12/31 00:24:10;;;;;;;3.87;2.43;;;9.50;99.90;;;;;;7393754;19;20141;-73
2023/12/31 00:26:36;;;;;;;3.90;1.97;;;9.50;99.90;;;;;;7393551;19;20145;-73
2023/12/31 00:29:01;;;;;;;1.47;1.37;;;9.40;99.90;;;;;;7394040;19;20221;-71
2023/12/31 00:31:27;;;;;;;2.70;1.70;;;9.40;99.90;;;;;;7395038;19;20209;-73
2023/12/31 00:33:56;;;;;;;1.70;1.10;;;9.30;99.90;;;;;;7393534;19;20143;-73
2023/12/31 00:36:25;;;;;;;1.77;1.37;;;9.40;99.90;;;;;;7393870;19;20150;-73
2023/12/31 00:38:53;;;;;;;1.47;1.07;;;9.30;99.90;;;;;;7391332;19;20206;-72
2023/12/31 00:41:19;;;;;;;2.83;1.90;;;9.40;99.90;;;;;;7395219;19;20676;-73
2023/12/31 00:43:45;;;;;;;2.97;2.00;;;9.30;99.90;;;;;;7392514;19;20131;-72
2023/12/31 00:46:14;;;;;;;1.10;1.00;;;9.30;99.90;;;;;;7393026;19;20151;-73
2023/12/31 00:48:40;;;;;;;1.70;1.60;;;9.20;99.90;;;;;;7393491;19;20549;-74
2023/12/31 00:51:06;;;;;;;2.27;1.83;;;9.10;99.90;;;;;;7394518;19;20133;-74
2023/12/31 00:53:32;;;;;;;3.37;2.67;;;9.00;99.90;;;;;;7393491;19;20162;-73
2023/12/31 00:55:58;;;;;;;2.87;2.07;;;9.10;99.90;;;;;;7395120;19;20134;-73
2023/12/31 00:58:24;;;;;;;5.77;1.80;;;9.10;99.90;;;;;;7391381;19;20149;-73
2023/12/31 01:00:50;;;;;;;2.30;1.30;;;9.10;99.90;;;;;;7393405;19;20748;-73
2023/12/31 01:03:15;;;;;;;2.30;1.80;;;8.90;99.90;;;;;;7390206;19;20158;-73
2023/12/31 01:05:41;;;;;;;2.53;1.63;;;9.10;99.90;;;;;;7392495;19;20158;-72
2023/12/31 01:08:08;;;;;;;3.13;2.50;;;9.00;99.90;;;;;;7390934;19;20487;-72
2023/12/31 01:10:34;;;;;;;1.83;1.67;;;9.20;99.90;;;;;;7391391;19;20134;-72
2023/12/31 01:12:59;;;;;;;2.07;1.57;;;9.10;99.90;;;;;;7393366;19;20147;-72
2023/12/31 01:15:25;;;;;;;1.20;1.10;;;9.10;99.90;;;;;;7393301;19;20481;-70
2023/12/31 01:17:52;;;;;;;2.03;1.43;;;9.20;99.90;;;;;;7391736;19;20130;-72
2023/12/31 01:20:18;;;;;;;3.77;2.03;;;9.10;99.90;;;;;;7393632;19;20135;-71
2023/12/31 01:22:43;;;;;;;2.40;1.70;;;9.10;99.90;;;;;;7392066;19;20127;-72
2023/12/31 01:25:09;;;;;;;3.73;2.43;;;9.20;99.90;;;;;;7389344;19;20126;-72
2023/12/31 01:27:35;;;;;;;2.27;1.80;;;9.10;99.90;;;;;;7390651;19;20472;-73
2023/12/31 01:30:01;;;;;;;2.63;1.53;;;9.10;99.90;;;;;;7392734;19;20131;-73
2023/12/31 01:32:27;;;;;;;2.63;1.53;;;9.10;99.90;;;;;;7389494;19;20142;-73
2023/12/31 01:35:00;;;;;;;3.97;1.50;;;9.00;99.90;;;;;;7390937;19;20466;-73
2023/12/31 01:37:26;;;;;;;1.50;1.37;;;9.00;99.90;;;;;;7390540;19;20118;-73
2023/12/31 01:39:52;;;;;;;2.43;1.10;;;9.00;99.90;;;;;;7389937;19;20206;-73
2023/12/31 01:42:18;;;;;;;1.10;1.00;;;8.90;99.90;;;;;;7392517;19;20211;-73
2023/12/31 01:44:43;;;;;;;1.37;1.27;;;8.90;99.90;;;;;;7390024;19;20129;-72
2023/12/31 01:47:10;;;;;;;1.83;1.40;;;8.90;99.90;;;;;;7388911;19;20134;-72
2023/12/31 01:49:35;;;;;;;1.33;1.23;;;8.80;99.90;;;;;;7391751;19;20478;-73
2023/12/31 01:52:02;;;;;;;2.03;1.23;;;8.70;99.90;;;;;;7392149;19;20143;-73
2023/12/31 01:54:28;;;;;;;1.77;1.30;;;8.80;99.90;;;;;;7389730;19;20543;-73
2023/12/31 01:56:55;;;;;;;1.87;1.40;;;8.90;99.90;;;;;;7390918;19;20150;-72
2023/12/31 01:59:21;;;;;;;4.47;1.83;;;8.80;99.90;;;;;;7389145;19;20150;-72
2023/12/31 02:01:48;;;;;;;2.33;1.67;;;8.90;99.90;;;;;;7391758;19;20198;-74
2023/12/31 02:04:15;;;;;;;3.23;1.73;;;8.80;99.90;;;;;;7388664;19;20207;-73
2023/12/31 02:06:41;;;;;;;2.33;1.20;;;8.80;99.90;;;;;;7390886;19;20135;-73
2023/12/31 02:09:08;;;;;;;1.87;1.50;;;8.70;99.90;;;;;;7388888;19;20156;-73
2023/12/31 02:11:35;;;;;;;1.90;1.30;;;8.70;99.90;;;;;;7391279;19;20158;-73
2023/12/31 02:14:01;;;;;;;1.97;1.67;;;8.70;99.90;;;;;;7389776;19;20564;-74
2023/12/31 02:16:27;;;;;;;1.30;1.10;;;8.80;99.90;;;;;;7390073;19;20130;-73
2023/12/31 02:18:53;;;;;;;3.13;2.10;;;8.70;99.90;;;;;;7390698;19;20145;-73
2023/12/31 02:21:20;;;;;;;2.27;1.40;;;8.80;99.90;;;;;;7390711;19;20138;-73
2023/12/31 02:23:46;;;;;;;1.87;1.70;;;8.70;99.90;;;;;;7390397;19;21896;-73
2023/12/31 02:26:12;;;;;;;1.87;1.63;;;8.60;99.90;;;;;;7388949;19;20616;-73
2023/12/31 02:28:39;;;;;;;3.27;2.40;;;8.60;99.90;;;;;;7388579;19;20143;-74
2023/12/31 02:31:05;;;;;;;2.40;1.10;;;8.60;99.90;;;;;;7390175;19;20138;-73
2023/12/31 02:33:32;;;;;;;2.00;1.27;;;8.60;99.90;;;;;;7390640;19;20478;-74
2023/12/31 02:35:58;;;;;;;1.70;1.53;;;8.60;99.90;;;;;;7389817;19;20184;-72
2023/12/31 02:38:24;;;;;;;1.47;1.33;;;8.50;99.90;;;;;;7388567;19;20142;-73
2023/12/31 02:40:49;;;;;;;1.53;1.43;;;8.50;99.90;;;;;;7388714;19;20474;-74
2023/12/31 02:43:15;;;;;;;2.03;1.10;;;8.50;99.90;;;;;;7391073;19;20165;-73
2023/12/31 02:45:41;;;;;;;1.30;0.87;;;8.50;99.90;;;;;;7387524;19;20158;-74
2023/12/31 02:48:07;;;;;;;2.77;2.00;;;8.60;99.90;;;;;;7388781;19;20171;-74
2023/12/31 02:50:33;;;;;;;2.70;1.60;;;8.60;99.90;;;;;;7390640;19;20163;-73
2023/12/31 02:52:58;;;;;;;1.97;1.50;;;8.60;99.90;;;;;;7389396;19;20242;-74
2023/12/31 02:55:24;;;;;;;1.13;1.03;;;8.60;99.90;;;;;;7385306;19;20150;-73
2023/12/31 02:57:50;;;;;;;2.30;1.60;;;8.60;99.90;;;;;;7390907;19;20139;-73
2023/12/31 03:00:16;;;;;;;2.73;1.77;;;8.60;99.90;;;;;;7386561;19;20146;-73
2023/12/31 03:02:41;;;;;;;2.03;1.73;;;8.60;99.90;;;;;;7389036;19;20143;-74
2023/12/31 03:05:08;;;;;;;1.77;1.53;;;8.50;99.90;;;;;;7385314;19;20174;-73
2023/12/31 03:07:34;;;;;;;2.13;1.47;;;8.60;99.90;;;;;;7390282;19;20214;-75
2023/12/31 03:10:00;;;;;;;1.57;1.27;;;8.70;99.90;;;;;;7387795;19;20144;-73
2023/12/31 03:12:26;;;;;;;1.73;1.57;;;8.70;99.90;;;;;;7390206;19;20146;-73
2023/12/31 03:14:51;;;;;;;2.10;1.57;;;8.70;99.90;;;;;;7389686;19;20543;-73
2023/12/31 03:17:17;;;;;;;1.80;1.27;;;8.90;99.90;;;;;;7390014;19;20150;-74
2023/12/31 03:19:43;;;;;;;1.77;1.40;;;8.80;99.90;;;;;;7387980;19;20485;-73
2023/12/31 03:22:09;;;;;;;2.37;1.80;;;8.80;99.90;;;;;;7387385;19;20143;-73
2023/12/31 03:24:34;;;;;;;2.50;1.60;;;8.80;99.90;;;;;;7386378;19;20163;-73
2023/12/31 03:27:00;;;;;;;2.17;1.53;;;8.80;99.90;;;;;;7394135;19;20626;-73
2023/12/31 03:29:26;;;;;;;2.30;1.60;;;8.80;99.90;;;;;;7396655;19;20590;-74
2023/12/31 03:31:52;;;;;;;3.03;1.90;;;8.80;99.90;;;;;;7398587;19;20603;-73
2023/12/31 03:34:19;;;;;;;2.27;1.77;;;8.80;99.90;;;;;;7394174;19;20143;-73
2023/12/31 03:36:46;;;;;;;3.33;1.80;;;8.80;99.90;;;;;;7396072;19;20151;-74
2023/12/31 03:39:12;;;;;;;4.07;1.70;;;8.80;99.90;;;;;;7394744;19;20135;-74
2023/12/31 03:41:38;;;;;;;2.17;1.33;;;8.80;99.90;;;;;;7396054;19;20150;-74
2023/12/31 03:44:04;;;;;;;1.90;1.40;;;8.90;99.90;;;;;;7389197;19;20135;-74
2023/12/31 03:46:30;;;;;;;1.67;1.30;;;8.80;99.90;;;;;;7396490;19;20138;-73
2023/12/31 03:48:55;;;;;;;2.93;1.43;;;8.80;99.90;;;;;;7394705;19;20138;-73
2023/12/31 03:51:21;;;;;;;1.83;1.40;;;8.80;99.90;;;;;;7396696;19;20160;-73
2023/12/31 03:53:47;;;;;;;1.63;1.53;;;8.80;99.90;;;;;;7395857;19;20146;-73
2023/12/31 03:56:13;;;;;;;1.20;1.10;;;8.80;99.90;;;;;;7395430;19;20139;-73
2023/12/31 03:58:38;;;;;;;1.40;1.30;;;8.70;99.90;;;;;;7395406;19;20137;-74
2023/12/31 04:01:04;;;;;;;1.40;1.30;;;8.80;99.90;;;;;;7394850;19;20162;-73
2023/12/31 04:03:30;;;;;;;1.77;1.30;;;8.80;99.90;;;;;;7392856;19;20612;-73
2023/12/31 04:05:56;;;;;;;1.63;1.47;;;8.80;99.90;;;;;;7392453;19;20399;-73
2023/12/31 04:08:22;;;;;;;2.30;1.47;;;8.90;99.90;;;;;;7393344;19;20192;-72
2023/12/31 04:10:48;;;;;;;1.77;1.30;;;8.80;99.90;;;;;;7396656;19;20592;-73
2023/12/31 04:13:13;;;;;;;1.47;1.20;;;8.90;99.90;;;;;;7393623;19;20118;-75
2023/12/31 04:15:39;;;;;;;2.97;1.00;;;8.70;99.90;;;;;;7395215;19;20146;-74
2023/12/31 04:18:05;;;;;;;1.10;1.00;;;8.70;99.90;;;;;;7394592;19;20608;-75
2023/12/31 04:20:30;;;;;;;1.83;1.13;;;8.80;99.90;;;;;;7395535;19;20169;-74
2023/12/31 04:22:56;;;;;;;1.67;1.50;;;8.80;99.90;;;;;;7394440;19;20494;-73
2023/12/31 04:25:22;;;;;;;1.77;1.17;;;8.80;99.90;;;;;;7393652;19;20135;-74
2023/12/31 04:27:47;;;;;;;1.50;1.40;;;8.70;99.90;;;;;;7395716;19;20572;-74
2023/12/31 04:30:13;;;;;;;1.00;0.83;;;8.80;99.90;;;;;;7392493;19;20149;-73
2023/12/31 04:32:39;;;;;;;1.20;1.10;;;8.80;99.90;;;;;;7393458;19;20138;-74
2023/12/31 04:35:05;;;;;;;1.43;1.30;;;8.80;99.90;;;;;;7395044;19;20786;-74
2023/12/31 04:37:31;;;;;;;1.13;1.03;;;8.80;99.90;;;;;;7390629;19;20165;-72
2023/12/31 04:39:57;;;;;;;1.57;1.33;;;8.80;99.90;;;;;;7394390;19;20123;-73
2023/12/31 04:42:23;;;;;;;3.43;1.60;;;8.70;99.90;;;;;;7392753;19;20162;-74
2023/12/31 04:44:51;;;;;;;1.20;1.10;;;8.80;99.90;;;;;;7392462;19;20142;-73
2023/12/31 04:47:16;;;;;;;3.07;2.17;;;8.80;99.90;;;;;;7393556;19;20147;-74
2023/12/31 04:49:42;;;;;;;1.60;1.40;;;8.80;99.90;;;;;;7392218;19;20454;-73
2023/12/31 04:52:08;;;;;;;2.87;1.50;;;8.80;99.90;;;;;;7392209;19;20635;-73
2023/12/31 04:54:37;;;;;;;1.83;1.67;;;8.80;99.90;;;;;;7395944;19;20138;-73
2023/12/31 04:57:04;;;;;;;1.90;1.50;;;8.90;99.90;;;;;;7394663;19;20555;-72
2023/12/31 04:59:29;;;;;;;3.00;1.33;;;8.90;99.90;;;;;;7392481;19;20138;-73
2023/12/31 05:01:55;;;;;;;1.93;1.60;;;8.90;99.90;;;;;;7394322;19;20140;-73
2023/12/31 05:04:21;;;;;;;1.87;1.40;;;8.80;99.90;;;;;;7390541;19;20241;-73
2023/12/31 05:06:47;;;;;;;1.37;1.27;;;8.80;99.90;;;;;;7393837;19;20142;-73
2023/12/31 05:09:13;;;;;;;1.80;1.40;;;8.70;99.90;;;;;;7392238;19;20210;-73
2023/12/31 05:11:38;;;;;;;1.37;1.17;;;8.70;99.90;;;;;;7393119;19;20564;-72
2023/12/31 05:14:04;;;;;;;1.90;1.27;;;8.60;99.90;;;;;;7395380;19;20135;-72
2023/12/31 05:16:33;;;;;;;1.97;1.57;;;8.70;99.90;;;;;;7393632;19;20162;-73
2023/12/31 05:19:00;;;;;;;1.20;1.00;;;8.70;99.90;;;;;;7393869;19;20139;-74
2023/12/31 05:21:27;;;;;;;1.10;0.80;;;8.80;99.90;;;;;;7392459;19;20566;-73
2023/12/31 05:23:52;;;;;;;1.77;1.10;;;8.90;99.90;;;;;;7392699;19;20145;-72
2023/12/31 05:26:18;;;;;;;1.40;0.83;;;8.90;99.90;;;;;;7393575;19;20138;-74
2023/12/31 05:28:44;;;;;;;1.43;0.80;;;8.90;99.90;;;;;;7391596;19;20134;-73
2023/12/31 05:31:10;;;;;;;1.30;1.20;;;9.00;99.90;;;;;;7391185;19;20131;-73
2023/12/31 05:33:37;;;;;;;1.17;1.07;;;8.90;99.90;;;;;;7391757;19;20234;-73
2023/12/31 05:36:03;;;;;;;1.73;1.20;;;9.00;99.90;;;;;;7392463;19;20167;-73
2023/12/31 05:38:29;;;;;;;1.07;0.90;;;9.00;99.90;;;;;;7390520;19;20142;-73
2023/12/31 05:40:55;;;;;;;0.80;0.70;;;8.90;99.90;;;;;;7392031;19;20505;-74
2023/12/31 05:43:21;;;;;;;0.87;0.80;;;9.00;99.90;;;;;;7392453;19;20194;-72
2023/12/31 05:45:48;;;;;;;1.70;1.30;;;9.00;99.90;;;;;;7391227;19;20159;-73
2023/12/31 05:48:14;;;;;;;1.40;1.30;;;9.10;99.90;;;;;;7388830;19;20162;-73
2023/12/31 05:50:40;;;;;;;1.20;1.10;;;8.90;99.90;;;;;;7391491;19;20615;-73
2023/12/31 05:53:05;;;;;;;1.87;1.63;;;8.80;99.90;;;;;;7391403;19;20151;-73
2023/12/31 05:55:31;;;;;;;1.50;1.10;;;8.80;99.90;;;;;;7393114;19;20146;-73
2023/12/31 05:57:57;;;;;;;1.33;1.03;;;8.80;99.90;;;;;;7390686;19;20162;-73
2023/12/31 06:00:23;;;;;;;1.53;1.20;;;8.90;99.90;;;;;;7390472;19;20507;-73
2023/12/31 06:02:49;;;;;;;1.97;1.50;;;8.80;99.90;;;;;;7392893;19;20138;-74
2023/12/31 06:05:15;;;;;;;1.20;1.10;;;8.80;99.90;;;;;;7390208;19;20188;-74
2023/12/31 06:07:41;;;;;;;0.97;0.70;;;8.80;99.90;;;;;;7390913;19;20158;-73
2023/12/31 06:10:07;;;;;;;0.83;0.83;;;8.90;99.90;;;;;;7389143;19;20151;-73
2023/12/31 06:12:33;;;;;;;0.70;0.70;;;8.90;99.90;;;;;;7392437;19;20155;-74
2023/12/31 06:14:59;;;;;;;0.50;0.40;;;8.90;99.90;;;;;;7389879;19;20138;-74
2023/12/31 06:17:26;;;;;;;0.53;0.53;;;8.90;99.90;;;;;;7389830;19;20142;-74
2023/12/31 06:19:52;;;;;;;0.30;0.30;;;9.00;99.90;;;;;;7392026;19;20162;-74
2023/12/31 06:22:18;;;;;;;0.70;0.70;;;9.10;99.90;;;;;;7389429;19;20142;-74
2023/12/31 06:24:44;;;;;;;2.23;0.90;;;9.30;99.90;;;;;;7389643;19;20157;-74
2023/12/31 06:27:10;;;;;;;1.80;1.07;;;9.30;99.90;;;;;;7389398;19;20152;-74
2023/12/31 06:29:36;;;;;;;1.07;0.97;;;9.30;99.90;;;;;;7390565;19;20135;-74
2023/12/31 06:32:01;;;;;;;1.43;0.73;;;9.20;99.90;;;;;;7390179;19;20606;-73
2023/12/31 06:34:27;;;;;;;1.30;1.20;;;9.20;99.90;;;;;;7391842;19;20142;-73
2023/12/31 06:36:53;;;;;;;0.87;0.47;;;9.20;99.90;;;;;;7389986;19;20139;-74
2023/12/31 06:39:19;;;;;;;0.80;0.70;;;9.20;99.90;;;;;;7390669;19;20865;-74
2023/12/31 06:41:44;;;;;;;0.60;0.60;;;9.20;99.90;;;;;;7389019;19;20599;-74
2023/12/31 06:44:10;;;;;;;0.77;0.67;;;9.10;99.90;;;;;;7388950;19;20150;-74
2023/12/31 06:46:36;;;;;;;0.50;0.50;;;9.10;99.90;;;;;;7390945;19;20612;-74
2023/12/31 06:49:01;;;;;;;0.50;0.33;;;9.20;99.90;;;;;;7391749;19;20142;-74
2023/12/31 06:51:27;;;;;;;0.83;0.63;;;9.30;99.90;;;;;;7389229;19;20636;-72
2023/12/31 06:53:53;;;;;;;0.63;0.60;;;9.40;99.90;;;;;;7389178;19;20907;-74
2023/12/31 06:56:18;;;;;;;0.47;0.47;;;9.40;99.90;;;;;;7389795;19;20150;-74
2023/12/31 06:58:44;;;;;;;0.63;0.60;;;9.40;99.90;;;;;;7390069;19;20859;-73
2023/12/31 07:01:10;;;;;;;0.97;0.50;;;9.50;99.90;;;;;;7394046;19;20152;-73
2023/12/31 07:03:36;;;;;;;0.50;0.50;;;9.50;99.90;;;;;;7395492;19;20537;-73
2023/12/31 07:06:02;;;;;;;0.40;0.40;;;9.60;99.90;;;;;;7395079;19;20151;-73
2023/12/31 07:08:27;;;;;;;2.43;0.83;;;9.60;99.90;;;;;;7395781;19;20180;-72
2023/12/31 07:10:54;;;;;;;0.53;0.50;;;9.60;99.90;;;;;;7398601;19;20131;-73
2023/12/31 07:13:22;;;;;;;1.17;0.60;;;9.60;99.90;;;;;;7394917;19;20161;-73
2023/12/31 07:15:48;;;;;;;0.60;0.53;;;9.50;99.90;;;;;;7398600;19;20147;-72
2023/12/31 07:18:14;;;;;;;1.33;0.80;;;9.60;99.90;;;;;;7395936;19;20143;-72
2023/12/31 07:20:39;;;;;;;0.80;0.60;;;9.50;99.90;;;;;;7394980;19;20153;-74
2023/12/31 07:23:05;;;;;;;1.05;0.73;;;9.50;99.90;;;;;;7396957;19;20395;-73
2023/12/31 07:25:32;;;;;;;1.40;1.10;;;9.50;99.90;;;;;;7393321;19;20884;-75
2023/12/31 07:28:01;;;;;;;1.53;0.60;;;9.50;99.90;;;;;;7397126;19;20708;-75
2023/12/31 07:30:27;;;;;;;0.70;0.60;;;9.40;99.90;;;;;;7394728;19;20139;-74
2023/12/31 07:32:52;;;;;;;0.60;0.60;;;9.30;99.90;;;;;;7398304;19;20147;-75
2023/12/31 07:35:18;;;;;;;0.50;0.50;;;9.40;99.90;;;;;;7396754;19;20148;-75
2023/12/31 07:37:44;;;;;;;0.63;0.60;;;9.40;99.90;;;;;;7395291;19;20131;-76
2023/12/31 07:40:10;;;;;;;1.17;0.60;;;9.50;99.90;;;;;;7394116;19;20155;-77
2023/12/31 07:42:39;;;;;;;2.33;1.00;;;9.60;99.90;;;;;;7395881;19;20242;-76
2023/12/31 07:45:06;;;;;;;1.10;0.60;;;9.60;99.90;;;;;;7394874;19;20243;-78
2023/12/31 07:47:35;;;;;;;0.50;0.50;;;9.70;99.90;;;;;;7396434;19;20138;-75
2023/12/31 07:50:02;;;;;;;0.60;0.60;;;9.70;99.90;;;;;;7393780;19;20957;-76
2023/12/31 07:52:28;;;;;;;0.43;0.43;;;9.80;99.90;;;;;;7393279;19;20220;-76
2023/12/31 07:54:54;;;;;;;1.47;0.80;;;9.80;99.90;;;;;;7394244;19;20142;-76
2023/12/31 07:57:20;;;;;;;0.60;0.60;;;9.80;99.90;;;;;;7395997;19;20138;-76
2023/12/31 07:59:46;;;;;;;0.40;0.37;;;9.80;99.90;;;;;;7392312;19;20127;-76
2023/12/31 08:02:12;;;;;;;0.30;0.30;;;9.90;99.90;;;;;;7394066;19;20131;-76
2023/12/31 08:04:38;;;;;;;0.47;0.47;;;9.90;99.90;;;;;;7390790;19;20196;-75
2023/12/31 08:07:04;;;;;;;0.47;0.47;;;10.00;99.90;;;;;;7391857;19;20651;-75
2023/12/31 08:09:31;;;;;;;0.70;0.70;;;9.90;99.90;;;;;;7391556;19;20158;-75
2023/12/31 08:11:57;;;;;;;0.40;0.40;;;9.90;99.90;;;;;;7391437;19;20139;-75
2023/12/31 08:14:23;;;;;;;0.73;0.67;;;10.00;99.90;;;;;;7392339;19;20217;-76
2023/12/31 08:16:49;;;;;;;0.40;0.40;;;10.10;99.90;;;;;;7393188;19;20599;-75
2023/12/31 08:19:16;;;;;;;0.63;0.40;;;10.00;99.90;;;;;;7389792;19;20135;-76
2023/12/31 08:21:42;;;;;;;0.60;0.60;;;9.90;99.90;;;;;;7390925;19;20620;-75
2023/12/31 08:24:08;;;;;;;0.77;0.60;;;9.90;99.90;;;;;;7390450;19;20142;-75
2023/12/31 08:26:35;;;;;;;0.67;0.50;;;10.00;99.90;;;;;;7392135;19;20138;-75
2023/12/31 08:29:02;;;;;;;0.60;0.60;;;10.00;99.90;;;;;;7392370;19;20171;-76
2023/12/31 08:31:28;;;;;;;0.53;0.50;;;10.10;99.90;;;;;;7391688;19;20270;-77
2023/12/31 08:33:54;;;;;;;0.70;0.60;;;10.00;99.90;;;;;;7391952;19;20256;-74
2023/12/31 08:36:20;;;;;;;0.40;0.40;;;10.00;99.90;;;;;;7393152;19;20214;-77
2023/12/31 08:38:45;;;;;;;0.53;0.53;;;10.10;99.90;;;;;;7394099;19;20138;-76
2023/12/31 08:41:11;;;;;;;0.50;0.50;;;10.30;99.90;;;;;;7392539;19;20537;-76
2023/12/31 08:43:37;;;;;;;0.70;0.50;;;10.30;99.90;;;;;;7393842;19;20139;-76
2023/12/31 08:46:03;;;;;;;0.67;0.57;;;10.30;99.90;;;;;;7390314;19;20588;-75
2023/12/31 08:48:29;;;;;;;0.80;0.63;;;10.30;99.90;;;;;;7393344;19;20150;-75
2023/12/31 08:50:55;;;;;;;0.33;0.33;;;10.40;99.90;;;;;;7391206;19;20610;-77
2023/12/31 08:53:21;;;;;;;0.70;0.50;;;9.90;99.90;;;;;;7391269;19;20147;-76
2023/12/31 08:55:51;;;;;;;1.27;0.70;;;9.90;99.90;;;;;;7390994;19;20138;-76
2023/12/31 08:58:17;;;;;;;0.30;0.30;;;10.00;99.90;;;;;;7391470;19;20146;-76
2023/12/31 09:00:43;;;;;;;0.63;0.53;;;10.10;99.90;;;;;;7389686;19;20177;-76
2023/12/31 09:03:09;;;;;;;1.37;0.77;;;9.90;99.90;;;;;;7390464;19;20615;-76
2023/12/31 09:05:35;;;;;;;2.23;1.77;;;10.00;99.90;;;;;;7245239;19;2816083;-75
2023/12/31 09:08:02;;;;;;;0.63;0.63;;;10.30;99.90;;;;;;7391178;19;20185;-75
2023/12/31 09:10:28;;;;;;;1.47;1.20;;;10.40;99.90;;;;;;7392173;19;20139;-75
2023/12/31 09:12:54;;;;;;;1.57;1.03;;;10.40;99.90;;;;;;7394044;19;20167;-74
2023/12/31 09:15:19;;;;;;;1.73;1.20;;;10.40;99.90;;;;;;7392270;19;20151;-75
2023/12/31 09:17:45;;;;;;;0.60;0.60;;;10.20;99.90;;;;;;7394837;19;20526;-75
2023/12/31 09:20:11;;;;;;;2.17;1.20;;;10.20;99.90;;;;;;7392550;19;20131;-76
2023/12/31 09:22:37;;;;;;;1.03;0.80;;;10.30;99.90;;;;;;7393433;19;20142;-75
2023/12/31 09:25:05;;;;;;;1.20;0.80;;;10.20;99.90;;;;;;7392466;19;20243;-75
2023/12/31 09:27:32;;;;;;;0.70;0.70;;;10.20;99.90;;;;;;7392799;19;20566;-76
2023/12/31 09:29:57;;;;;;;1.03;0.97;;;10.20;99.90;;;;;;7393097;19;20588;-76
2023/12/31 09:32:23;;;;;;;1.43;1.33;;;10.30;99.90;;;;;;7391578;19;20138;-77
2023/12/31 09:34:49;;;;;;;0.90;0.73;;;10.20;99.90;;;;;;7391716;19;20150;-77
2023/12/31 09:37:21;;;;;;;1.73;1.03;;;10.10;99.90;;;;;;7391632;19;20480;-77
2023/12/31 09:39:47;;;;;;;1.50;0.83;;;10.10;99.90;;;;;;7391317;19;20611;-77
2023/12/31 09:42:17;;;;;;;1.43;1.00;;;10.00;99.90;;;;;;7391823;19;20600;-77
2023/12/31 09:44:44;;;;;;;1.73;0.83;;;10.00;99.90;;;;;;7392532;19;20134;-76
2023/12/31 09:47:11;;;;;;;1.10;0.90;;;10.00;99.90;;;;;;7393123;19;20138;-75
2023/12/31 09:49:38;;;;;;;1.37;1.27;;;10.00;99.90;;;;;;7393040;19;20130;-76
2023/12/31 09:52:07;;;;;;;2.70;1.27;;;10.00;99.90;;;;;;7391619;19;20139;-75
2023/12/31 09:54:35;;;;;;;1.53;0.83;;;10.10;99.90;;;;;;7392742;19;20135;-76
2023/12/31 09:57:01;;;;;;;2.07;1.50;;;10.20;99.90;;;;;;7390681;19;20207;-77
2023/12/31 09:59:28;;;;;;;1.47;1.10;;;10.20;99.90;;;;;;7392723;19;20126;-76
2023/12/31 10:01:58;;;;;;;1.33;1.17;;;10.30;99.90;;;;;;7390765;19;20242;-76
2023/12/31 10:04:24;;;;;;;0.70;0.70;;;10.20;99.90;;;;;;7390577;19;20525;-74
2023/12/31 10:06:51;;;;;;;1.50;1.23;;;10.10;99.90;;;;;;7390809;19;20166;-77
2023/12/31 10:09:23;;;;;;;1.83;1.30;;;10.10;99.90;;;;;;7392537;19;20492;-77
2023/12/31 10:11:49;;;;;;;1.03;0.77;;;10.40;99.90;;;;;;7391967;19;20138;-75
2023/12/31 10:14:16;;;;;;;0.97;0.97;;;10.40;99.90;;;;;;7391756;19;20232;-75
2023/12/31 10:16:43;;;;;;;1.93;1.43;;;10.40;99.90;;;;;;7391977;19;20511;-77
2023/12/31 10:19:11;;;;;;;1.50;1.30;;;10.40;99.90;;;;;;7392652;19;20123;-76
2023/12/31 10:21:37;;;;;;;2.10;1.43;;;10.40;99.90;;;;;;7391474;19;20130;-74
2023/12/31 10:24:03;;;;;;;2.70;1.83;;;10.40;99.90;;;;;;7390811;19;20588;-78
2023/12/31 10:26:28;;;;;;;2.30;1.43;;;10.40;99.90;;;;;;7392411;19;20134;-76
2023/12/31 10:28:54;;;;;;;3.53;1.40;;;10.40;99.90;;;;;;7391669;19;20576;-75
2023/12/31 10:31:21;;;;;;;1.63;1.50;;;10.40;99.90;;;;;;7389806;19;20166;-76
2023/12/31 10:33:47;;;;;;;1.57;1.10;;;10.40;99.90;;;;;;7388207;19;20145;-75
2023/12/31 10:36:13;;;;;;;1.47;1.33;;;10.20;99.90;;;;;;7388073;19;20204;-76
2023/12/31 10:38:46;;;;;;;1.60;1.43;;;10.40;99.90;;;;;;7389707;19;20158;-75
2023/12/31 10:41:20;;;;;;;1.13;1.03;;;10.40;99.90;;;;;;7388078;19;20154;-75
2023/12/31 10:43:50;;;;;;;2.53;1.43;;;10.40;99.90;;;;;;7389322;19;20521;-77
2023/12/31 10:46:18;;;;;;;1.17;0.90;;;10.50;99.90;;;;;;7390587;19;20160;-75
2023/12/31 10:49:01;;;;;;;2.27;1.20;;;10.60;99.90;;;;;;7388494;19;20175;-75
2023/12/31 10:51:27;;;;;;;1.23;0.80;;;10.70;99.90;;;;;;7389374;19;20139;-75
2023/12/31 10:54:05;;;;;;;2.37;1.87;;;10.70;99.90;;;;;;7390203;19;20583;-75
2023/12/31 10:56:32;;;;;;;1.53;1.20;;;10.60;99.90;;;;;;7391911;19;20219;-75
2023/12/31 10:58:58;;;;;;;1.27;1.13;;;10.50;99.90;;;;;;7390634;19;20210;-77
2023/12/31 11:01:28;;;;;;;1.80;1.20;;;10.70;99.90;;;;;;7392664;19;20142;-76
2023/12/31 11:03:58;;;;;;;1.67;1.10;;;10.70;99.90;;;;;;7390596;19;20174;-76
2023/12/31 11:06:26;;;;;;;2.73;1.30;;;10.90;99.90;;;;;;7388450;19;20236;-75
2023/12/31 11:08:53;;;;;;;1.10;1.00;;;10.80;99.90;;;;;;7388918;19;20135;-76
2023/12/31 11:11:20;;;;;;;1.90;1.40;;;10.90;99.90;;;;;;7389587;19;20484;-76
2023/12/31 11:13:54;;;;;;;1.47;0.90;;;11.00;99.90;;;;;;7388151;19;20219;-75
2023/12/31 11:16:58;;;;;;;1.13;0.97;;;11.00;99.90;;;;;;7388826;19;20245;-75
2023/12/31 11:19:34;;;;;;;1.57;1.10;;;11.00;99.90;;;;;;7386714;19;20159;-75
2023/12/31 11:22:21;;;;;;;1.33;1.13;;;10.60;99.90;;;;;;7388534;19;20159;-75
2023/12/31 11:24:47;;;;;;;1.77;1.23;;;10.80;99.90;;;;;;7385406;19;20171;-76
2023/12/31 11:27:17;;;;;;;2.27;1.60;;;10.90;99.90;;;;;;7388536;19;20151;-76
2023/12/31 11:29:52;;;;;;;1.80;1.40;;;10.90;99.90;;;;;;7387650;19;20138;-75
2023/12/31 11:32:20;;;;;;;2.67;1.07;;;10.80;99.90;;;;;;7387953;19;20205;-76
2023/12/31 11:34:52;;;;;;;2.03;1.00;;;10.90;99.90;;;;;;7387301;19;20170;-75
2023/12/31 11:37:18;;;;;;;1.63;1.10;;;10.90;99.90;;;;;;7390271;19;20138;-75
2023/12/31 11:39:52;;;;;;;1.43;1.33;;;11.00;99.90;;;;;;7387176;19;20135;-77
2023/12/31 11:42:19;;;;;;;0.70;0.70;;;10.90;99.90;;;;;;7389715;19;20164;-76
2023/12/31 11:44:46;;;;;;;1.53;1.10;;;11.00;99.90;;;;;;7388731;19;20146;-75
2023/12/31 11:47:23;;;;;;;1.37;1.03;;;11.10;99.90;;;;;;7391780;19;20146;-75
2023/12/31 11:49:53;;;;;;;1.17;1.07;;;11.10;99.90;;;;;;7396547;19;20134;-75
2023/12/31 11:52:20;;;;;;;1.02;0.93;;;11.00;99.90;;;;;;7394531;19;20138;-75
2023/12/31 11:54:46;;;;;;;0.50;0.50;;;10.90;99.90;;;;;;7397623;19;20157;-75
2023/12/31 11:57:16;;;;;;;1.03;0.47;;;10.80;99.90;;;;;;7394504;19;20213;-76
2023/12/31 11:59:44;;;;;;;0.77;0.77;;;10.70;99.90;;;;;;7395941;19;20135;-77
2023/12/31 12:02:10;;;;;;;0.67;0.40;;;10.50;99.90;;;;;;7396769;19;20130;-76
2023/12/31 12:04:36;;;;;;;0.30;0.30;;;10.50;99.90;;;;;;7396875;19;20200;-76
2023/12/31 12:07:08;;;;;;;0.40;0.40;;;10.40;99.90;;;;;;7397208;19;20293;-77
2023/12/31 12:09:34;;;;;;;0.43;0.43;;;10.50;99.90;;;;;;7393718;19;20151;-76
2023/12/31 12:12:02;;;;;;;0.87;0.30;;;10.30;99.90;;;;;;7396602;19;20438;-76
2023/12/31 12:14:29;;;;;;;0.40;0.33;;;10.30;99.90;;;;;;7395710;19;20138;-76
2023/12/31 12:16:55;;;;;;;0.67;0.40;;;10.40;99.90;;;;;;7397306;19;20596;-76
2023/12/31 12:19:21;;;;;;;0.63;0.63;;;10.30;99.90;;;;;;7394495;19;20179;-76
2023/12/31 12:21:48;;;;;;;0.40;0.40;;;10.30;99.90;;;;;;7395235;19;20663;-76
2023/12/31 12:24:15;;;;;;;0.20;0.20;;;10.30;99.90;;;;;;7395004;19;20154;-76
2023/12/31 12:26:42;;;;;;;0.20;0.20;;;10.20;99.90;;;;;;7396614;19;20145;-76
2023/12/31 12:29:10;;;;;;;0.43;0.43;;;10.30;99.90;;;;;;7394985;19;20430;-76
2023/12/31 12:31:36;;;;;;;0.50;0.50;;;10.40;99.90;;;;;;7394615;19;20191;-75
2023/12/31 12:34:04;;;;;;;0.27;0.27;;;10.40;99.90;;;;;;7393452;19;20154;-75
2023/12/31 12:36:31;;;;;;;0.40;0.40;;;10.30;99.90;;;;;;7396756;19;20130;-75
2023/12/31 12:39:02;;;;;;;0.53;0.40;;;10.30;99.90;;;;;;7396598;19;20831;-75
2023/12/31 12:41:32;;;;;;;0.40;0.37;;;10.50;99.90;;;;;;7393310;19;20131;-75
2023/12/31 12:44:05;;;;;;;0.40;0.40;;;10.50;99.90;;;;;;7393381;19;20131;-74
2023/12/31 12:46:33;;;;;;;0.28;0.28;;;10.40;99.90;;;;;;7394049;19;20131;-74
2023/12/31 12:48:59;;;;;;;0.53;0.53;;;10.30;99.90;;;;;;7396159;19;20843;-75
2023/12/31 12:51:26;;;;;;;0.30;0.30;;;10.40;99.90;;;;;;7393452;19;20180;-76